Aérodrome :







RETROUVEZ-NOUS SUR...

 
LOGIN :

S'inscrire | Disclaimer

   EN    FR    IT 

 









Légende :    VFR   VFR Marginal   IFR   IFR Intensif   IFR Très Intensif
Visi : 
Plafond : 
>= 8 km
>= 3000ft
5 à 8 km
1000 à 3000 ft
1500m à 5 km
500 à 1000 ft
800 à 1500m
200 à 500 ft
< 800m
< 200 ft
Symboles :   Orages  Brouillard  Fortes neiges  Fortes précipitations  Vent > 20 kt






- Altitude de l'aérodrome : 16 ft
- Code IATA : FDF


TFFF - Aime Cesaire

DERNIER METAR :
  • 310030Z AUTO 11012KT 9999 FEW020 BKN210 27/24 Q1015 TEMPO 4000 -SHRA BKN018TCU

METARs EXPIRÉS :
  • 310000Z AUTO 11010KT 9999 FEW025 SCT078 BKN210 26/24 Q1015 TEMPO 4000 -SHRA BKN018TCU
  • 302330Z AUTO 11012KT 9999 FEW026 SCT056 BKN070 26/23 Q1015 NOSIG
  • 302300Z AUTO 10010KT 9999 FEW023 27/24 Q1015 NOSIG
  • 302230Z AUTO 11010KT 9999 FEW026 27/23 Q1015 NOSIG
  • 302200Z AUTO 10009KT 9999 FEW023 27/24 Q1014 NOSIG

TAF TAF TFFF
Valide du 31 à 00h jusqu'au 01 à 00h UTC


302300Z 3100/3124 10010KT 9999 SCT025 BKN070
PROB30
TEMPO 3100/3103 4000 -SHRA BKN018TCU
FIR TTZP / Amérique du Nord



MET'MAP, la Météo Aéronautique d'un coup d'oeil ! - Copyright ORBIFLY Décembre 2007 - Disclaimer

ORBIFLY MET'MAP TEAM :

Programmation & Développement : Alexandra Zaïnal
Sur une idée originale de : Baudouin d'Aumeries
Assistance à la programmation : Marc-Olivier Méhu
Soutien technique & logistique : Manuel Goepfert

Contact : metmap@orbifly.com




SOURCES & CREDITS :

   NOAA